Flight Track Log - Related Links

Times and Time Zones

All times are in EDT time to prevent confusion due to time zone crossing. See the KAP29 flight status page for this flight to view local times or setup timezone preferences in your user account.

Time Position Orientation Groundspeed Altitude Reporting Facility
EDT Latitude Longitude Course Direction KTS MPH feet Rate Location/Type
Sun 06:35:06 AM 44.3967 -73.9886 109° East 155 178 6,200  Level Boston Center
Sun 06:36:06 AM 44.3725 -73.9358 123° Southeast 160 184 6,600 400 Climbing Boston Center
Sun 06:37:06 AM 44.3481 -73.8828 123° Southeast 160 184 7,000 500 Climbing Boston Center
Sun 06:38:00 AM 44.2924 -74.0136 133° Southeast  Level FlightAware Approximate
Sun 06:38:06 AM 44.3217 -73.8272 124° Southeast 165 190 7,600  Level Boston Center
Sun 06:39:00 AM 44.2770 -73.9748 109° East  Level FlightAware Approximate
Sun 06:39:06 AM 44.2972 -73.7744 123° Southeast 170 196 8,300  Level Boston Center
Sun 06:40:06 AM 44.2708 -73.7128 121° Southeast 170 196 8,900 400 Climbing Boston Center
Sun 06:41:06 AM 44.2403 -73.6572 128° Southeast 176 203 9,100 100 Climbing Boston Center
Sun 06:42:06 AM 44.2117 -73.5928 122° Southeast 186 214 9,100  Level Boston Center
Sun 06:43:06 AM 44.1811 -73.5314 125° Southeast 186 214 9,100  Level Boston Center
Sun 06:44:06 AM 44.1506 -73.4700 125° Southeast 191 220 9,100  Level Boston Center
Sun 06:45:06 AM 44.1217 -73.4117 125° Southeast 191 220 9,100  Level Boston Center
Sun 06:46:06 AM 44.0931 -73.3506 123° Southeast 191 220 9,100  Level Boston Center
Sun 06:47:06 AM 44.0664 -73.2894 121° Southeast 191 220 9,100  Level Boston Center
Sun 06:48:06 AM 44.0356 -73.2314 126° Southeast 191 220 9,100  Level Boston Center
Sun 06:49:06 AM 44.0131 -73.1792 121° Southeast 191 220 9,100  Level Boston Center
Sun 06:50:06 AM 43.9822 -73.1181 125° Southeast 191 220 9,100  Level Boston Center
Sun 06:51:06 AM 43.9556 -73.0631 124° Southeast 185 213 9,100  Level Boston Center
Sun 06:52:06 AM 43.9244 -73.0022 125° Southeast 185 213 9,100  Level Boston Center
Sun 06:53:06 AM 43.8978 -72.9442 123° Southeast 179 206 9,100  Level Boston Center
Sun 06:54:06 AM 43.8686 -72.8836 124° Southeast 184 212 9,100  Level Boston Center
Sun 06:55:06 AM 43.8378 -72.8228 125° Southeast 184 212 9,100 -50 Level Boston Center
Sun 06:56:06 AM 43.8086 -72.7622 124° Southeast 184 212 9,000 -50 Descending Boston Center
Sun 06:57:06 AM 43.7817 -72.7047 123° Southeast 184 212 9,000  Level Boston Center
Sun 06:58:06 AM 43.7506 -72.6500 128° Southeast 179 206 9,000  Level Boston Center
Sun 06:59:06 AM 43.7258 -72.5922 121° Southeast 174 200 9,000  Level Boston Center
Sun 07:00:06 AM 43.6986 -72.5350 123° Southeast 174 200 9,000  Level Boston Center
Sun 07:01:06 AM 43.6717 -72.4803 124° Southeast 174 200 9,000  Level Boston Center
Sun 07:02:06 AM 43.6425 -72.4228 125° Southeast 174 200 9,000  Level Boston Center
Sun 07:03:06 AM 43.6133 -72.3628 124° Southeast 174 200 9,000 45 Level Boston Center
Sun 07:04:18 AM 43.5819 -72.2939 122° Southeast 174 200 9,100  Climbing Boston Center
Sun 07:05:18 AM 43.5506 -72.2339 126° Southeast 179 206 9,000 -50 Descending Boston Center
Sun 07:06:18 AM 43.5214 -72.1767 125° Southeast 179 206 9,000  Level Boston Center
Sun 07:07:18 AM 43.4942 -72.1194 123° Southeast 179 206 9,000  Level Boston Center
Sun 07:08:18 AM 43.4647 -72.0625 125° Southeast 179 206 9,000  Level Boston Center
Sun 07:09:18 AM 43.4375 -72.0025 122° Southeast 179 206 9,000  Level Boston Center
Sun 07:10:18 AM 43.4058 -71.9458 128° Southeast 179 206 9,000  Level Boston Center
Sun 07:11:18 AM 43.3725 -71.8975 133° Southeast 179 206 9,000 50 Level Boston Center
Sun 07:12:18 AM 43.3367 -71.8550 139° Southeast 179 206 9,100  Climbing Boston Center
Sun 07:13:18 AM 43.2969 -71.8039 137° Southeast 179 206 9,000 -50 Descending Boston Center
Sun 07:14:18 AM 43.2653 -71.7614 136° Southeast 184 212 9,000  Level Boston Center
Sun 07:15:18 AM 43.2256 -71.7106 137° Southeast 184 212 9,000  Level Boston Center
Sun 07:16:18 AM 43.1919 -71.6683 138° Southeast 184 212 9,000  Level Boston Center
Sun 07:17:13 AM 43.1500 -71.6167 138° Southeast 180 207 9,000  Level KA90
Sun 07:18:19 AM 43.1167 -71.5667 132° Southeast 179 206 9,000 -100 Level KA90
Sun 07:19:13 AM 43.0833 -71.5167 132° Southeast 185 213 8,800 -368 Descending KA90
Sun 07:20:13 AM 43.0500 -71.4667 132° Southeast 194 223 8,300 -450 Descending KA90
Sun 07:21:13 AM 43.0000 -71.4167 144° Southeast 196 226 7,900 -391 Descending KA90
Sun 07:22:31 AM 42.9500 -71.3500 136° Southeast 196 226 7,400 -429 Descending KA90
Sun 07:23:19 AM 42.9167 -71.3167 144° Southeast 195 224 7,000 -333 Descending KA90
Sun 07:24:19 AM 42.8833 -71.2667 132° Southeast 191 220 6,800 -300 Descending KA90
Sun 07:25:19 AM 42.8333 -71.2167 144° Southeast 186 214 6,400 -364 Descending KA90
Sun 07:26:31 AM 42.7833 -71.1833 154° Southeast 179 206 6,000 -350 Descending KA90
Sun 07:27:19 AM 42.7500 -71.1667 160° South 176 203 5,700 -450 Descending KA90
Sun 07:28:31 AM 42.7000 -71.1500 166° South 173 199 5,100 -500 Descending KA90
Sun 07:29:43 AM 42.6333 -71.1167 160° South 174 200 4,500 -471 Descending KA90
Sun 07:30:13 AM 42.6167 -71.1167 180° South 174 200 4,300 -500 Descending KA90
Sun 07:31:31 AM 42.5667 -71.0667 144° Southeast 177 204 3,600 -522 Descending KA90
Sun 07:32:31 AM 42.5167 -71.0500 166° South 173 199 3,100 -556 Descending KA90
Sun 07:33:19 AM 42.4833 -71.0333 160° South 175 201 2,600 -765 Descending KA90
Sun 07:34:13 AM 42.4333 -71.0000 154° Southeast 174 200 1,800 -895 Descending KA90
Sun 07:35:13 AM 42.4000 -70.9833 160° South 148 170 900 -900 Descending KA90
Sun 07:37:00 AM 42.3630 -71.0064 172° South  Level Estimated
Sun 07:44:00 AM 42.3630 -71.0064 172° South  Level Estimated

Login

Don't have an account? Register now (free) for customized features, flight alerts, and more!